Stations météo

Publicité
Beg Melen, France (7203): Température de l'air & dewpoint: 21.05.2019 05:00:00 - 27.05.2019 05:00:00 (CEST)Beg Melen, France (7203): Vitesse du vent & gusts: 21.05.2019 05:00:00 - 27.05.2019 05:00:00 (CEST)Beg Melen, France (7203): Direction du vent: 21.05.2019 05:00:00 - 27.05.2019 05:00:00 (CEST)Beg Melen, France (7203): visibility: 21.05.2019 05:00:00 - 27.05.2019 05:00:00 (CEST)Beg Melen, France (7203): Quantités de précipitations: 21.05.2019 05:00:00 - 27.05.2019 05:00:00 (CEST)
Date & Time tt [°C] td [°C] ff [km/h] ff [knt] fx [km/h] fx [knt] dd vv [km] rr [mm]
27.05.2019 05:00:00 12,7 11,8 31 17 44 24 NNW 20 0,0
27.05.2019 04:00:00 13,8 13,5 22 12 32 18 NW - 0,0
27.05.2019 03:00:00 14,1 13,8 20 11 36 19 NW - 0,0
27.05.2019 02:00:00 14,3 14,0 29 16 35 19 WNW 10 0,2
27.05.2019 01:00:00 14,4 14,1 27 15 36 20 W - 0,4
27.05.2019 00:00:00 14,5 14,2 19 11 36 20 W - 0,2
26.05.2019 23:00:00 14,5 14,2 17 9 36 19 W 2,0 0,2
26.05.2019 22:00:00 14,2 13,6 16 9 33 18 W - 0,0
26.05.2019 21:00:00 14,4 13,3 21 11 36 19 W - 0,0
26.05.2019 20:00:00 14,7 12,4 18 10 44 24 W 20 0,0
26.05.2019 19:00:00 14,7 12,4 31 17 46 25 W - 0,0
26.05.2019 18:00:00 14,8 12,5 35 19 48 26 W - 0,0
26.05.2019 17:00:00 15,0 12,9 27 15 46 25 W 20 0,0
26.05.2019 16:00:00 15,1 12,2 32 18 44 24 W - 0,0
26.05.2019 15:00:00 15,6 12,3 28 15 42 23 W - 0,0
26.05.2019 14:00:00 15,2 12,7 33 18 45 24 W 35 0,0
26.05.2019 13:00:00 15,1 12,6 21 11 39 21 W - 0,0
26.05.2019 12:00:00 14,7 12,2 27 14 35 19 W - 0,0
26.05.2019 11:00:00 14,8 11,8 21 11 36 19 WNW 30 0,0
26.05.2019 10:00:00 14,0 11,3 24 13 35 19 NW - 0,0
26.05.2019 09:00:00 13,3 11,4 22 12 34 19 NW - 0,0
26.05.2019 08:00:00 13,1 11,0 21 11 32 18 WNW 25 0,0
26.05.2019 07:00:00 13,7 11,9 26 14 34 19 WNW - 0,0
26.05.2019 06:00:00 13,6 10,2 16 9 29 15 WNW - 0,0
26.05.2019 05:00:00 13,7 10,9 13 7 28 15 WNW 20 0,0
26.05.2019 04:00:00 13,8 11,5 18 10 32 17 NW - 0,0
26.05.2019 03:00:00 13,8 12,0 21 11 36 19 WNW - 0,0
26.05.2019 02:00:00 14,2 12,1 22 12 33 18 NW 20 0,0
26.05.2019 01:00:00 14,3 12,0 21 12 38 21 NW - 0,0
26.05.2019 00:00:00 14,5 12,7 21 11 33 18 NW - 0,0
25.05.2019 23:00:00 14,7 13,6 25 13 45 24 NW 20 0,0
25.05.2019 22:00:00 14,8 13,5 35 19 50 27 WNW - 0,0
25.05.2019 21:00:00 15,2 13,6 33 18 51 27 W - 0,0
25.05.2019 20:00:00 15,4 13,4 34 18 53 29 W 20 0,0
25.05.2019 19:00:00 15,4 12,9 29 16 48 26 W - 0,0
25.05.2019 18:00:00 15,5 13,0 28 15 44 24 W - 0,0
25.05.2019 17:00:00 15,9 12,8 23 12 42 23 W 18 0,0
25.05.2019 16:00:00 17,0 13,1 19 10 35 19 W - 0,0
25.05.2019 15:00:00 15,3 12,8 16 8 35 19 W - 0,0
25.05.2019 14:00:00 15,5 12,4 16 9 31 17 W 30 0,0
25.05.2019 13:00:00 15,1 11,7 21 11 30 16 W - 0,0
25.05.2019 12:00:00 15,4 11,6 18 10 27 15 W - 0,0
25.05.2019 11:00:00 15,0 11,0 18 10 35 19 NW 30 0,0
25.05.2019 10:00:00 14,3 10,9 23 12 33 18 NW - 0,0
25.05.2019 09:00:00 13,9 10,1 19 10 35 19 NW - 0,0
25.05.2019 08:00:00 13,6 10,2 22 12 37 20 NNW 30 0,0
25.05.2019 07:00:00 13,5 10,1 20 11 34 19 NNW - 0,0
25.05.2019 06:00:00 13,4 10,0 18 10 35 19 NW - 0,0
25.05.2019 05:00:00 13,4 10,0 25 13 35 19 N 30 0,0
25.05.2019 04:00:00 13,4 10,0 21 11 35 19 NNW - 0,0
25.05.2019 03:00:00 13,4 10,0 19 10 37 20 NNW - 0,0
25.05.2019 02:00:00 13,4 10,0 22 12 38 21 NNW 20 0,0
25.05.2019 01:00:00 13,3 9,9 25 14 37 20 N - 0,0
25.05.2019 00:00:00 14,0 10,6 27 14 35 19 NNW - 0,0
24.05.2019 23:00:00 14,7 10,9 21 12 44 24 NNW 30 0,0
24.05.2019 22:00:00 15,4 11,0 24 13 43 23 NNW - 0,0
24.05.2019 21:00:00 16,9 11,6 35 19 46 25 N - 0,0
24.05.2019 20:00:00 17,9 11,9 35 19 43 23 N 35 0,0
24.05.2019 19:00:00 17,0 12,7 25 14 45 24 WNW - 0,0
24.05.2019 18:00:00 16,7 13,2 27 15 46 25 W - 0,0
24.05.2019 17:00:00 18,0 12,9 26 14 39 21 W 35 0,0
24.05.2019 16:00:00 17,8 11,4 24 13 39 21 NW - 0,0
24.05.2019 15:00:00 17,5 11,5 26 14 37 20 NW - 0,0
24.05.2019 14:00:00 17,9 12,6 22 12 28 15 W 35 0,0
24.05.2019 13:00:00 17,1 11,1 21 11 29 16 WNW - 0,0
24.05.2019 12:00:00 15,6 9,7 18 10 27 15 NW - 0,0
24.05.2019 11:00:00 14,8 10,2 18 10 26 14 NNW 25 0,0
24.05.2019 10:00:00 13,5 9,7 23 13 29 16 N - 0,0
24.05.2019 09:00:00 12,7 9,7 19 10 26 14 N - 0,0
24.05.2019 08:00:00 11,9 9,5 17 9 32 18 NNW - 0,0
24.05.2019 07:00:00 11,5 9,2 18 10 30 16 N - 0,0
24.05.2019 06:00:00 11,4 9,3 19 10 27 15 N - 0,0
24.05.2019 05:00:00 11,2 8,4 15 8 23 13 N 25 0,0
24.05.2019 04:00:00 11,7 8,4 15 8 26 14 NNE - 0,0
24.05.2019 03:00:00 12,2 8,3 14 8 23 12 NNE - 0,0
24.05.2019 02:00:00 13,2 9,1 16 9 25 14 NNE 25 0,0
24.05.2019 01:00:00 14,0 9,4 15 8 24 13 NNE - 0,0
24.05.2019 00:00:00 14,6 10,4 14 7 22 12 N - 0,0
23.05.2019 23:00:00 15,3 12,2 14 8 29 16 N 25 0,0
23.05.2019 22:00:00 15,6 11,8 24 13 37 20 WNW - 0,0
23.05.2019 21:00:00 15,9 10,4 21 11 36 20 W - 0,0
23.05.2019 20:00:00 16,7 11,2 17 9 34 18 W 25 0,0
23.05.2019 19:00:00 17,0 10,8 18 10 34 19 W - 0,0
23.05.2019 18:00:00 17,2 10,3 15 8 27 15 W - 0,0
23.05.2019 17:00:00 19,6 12,6 16 9 21 11 W 25 0,0
23.05.2019 16:00:00 18,7 11,5 17 9 21 11 WNW - 0,0
23.05.2019 15:00:00 19,9 12,2 13 7 16 9 W - 0,0
23.05.2019 14:00:00 19,8 13,7 5 3 10 6 WNW 25 0,0
23.05.2019 13:00:00 18,0 12,2 4 2 9 5 WNW - 0,0
23.05.2019 12:00:00 16,9 12,6 4 2 6 4 W - 0,0
23.05.2019 11:00:00 16,8 12,5 2 1 9 5 NW 20 0,0
23.05.2019 10:00:00 16,9 11,4 3 2 10 5 E - 0,0
23.05.2019 09:00:00 15,5 11,1 6 3 13 7 E - 0,0
23.05.2019 08:00:00 13,4 10,7 7 4 13 7 E 20 0,0
23.05.2019 07:00:00 12,7 9,3 8 5 18 10 ENE - 0,0
23.05.2019 06:00:00 12,6 8,1 11 6 16 9 ENE - 0,0
23.05.2019 05:00:00 12,1 8,9 9 5 15 8 NNE 20 0,0
23.05.2019 04:00:00 12,7 9,9 6 3 14 7 N - 0,0
23.05.2019 03:00:00 13,4 10,2 9 5 16 9 NW - 0,0
23.05.2019 02:00:00 13,3 10,5 5 3 9 5 NW 25 0,0
23.05.2019 01:00:00 14,1 11,8 7 4 18 10 NNW - 0,0
23.05.2019 00:00:00 14,2 11,9 12 7 20 11 NW - 0,0
22.05.2019 23:00:00 14,3 11,8 9 5 19 10 WNW 25 0,0
22.05.2019 22:00:00 14,8 12,1 10 5 14 7 W - 0,0
22.05.2019 21:00:00 16,2 12,2 9 5 11 6 NW - 0,0
22.05.2019 20:00:00 17,8 12,3 10 5 15 8 WNW 18 0,0
22.05.2019 19:00:00 18,6 12,6 12 6 18 10 W - 0,0
22.05.2019 18:00:00 19,2 12,7 11 6 17 9 W - 0,0
22.05.2019 17:00:00 19,8 12,5 8 5 16 9 W 18 0,0
22.05.2019 16:00:00 19,7 12,7 9 5 16 9 W - 0,0
22.05.2019 15:00:00 19,5 12,0 8 4 16 9 W - 0,0
22.05.2019 14:00:00 18,8 11,4 7 4 16 9 WSW 15 0,0
22.05.2019 13:00:00 17,5 12,8 5 3 9 5 N - 0,0
22.05.2019 12:00:00 17,1 12,6 6 4 16 9 NE - 0,0
22.05.2019 11:00:00 18,3 11,4 9 5 18 10 S 18 0,0
22.05.2019 10:00:00 16,4 10,9 7 4 16 8 E - 0,0
22.05.2019 09:00:00 14,6 10,4 11 6 19 11 ESE - 0,0
22.05.2019 08:00:00 12,4 9,8 11 6 17 9 E 18 0,0
22.05.2019 07:00:00 11,7 9,6 11 6 18 10 E - 0,0
22.05.2019 06:00:00 11,7 9,6 14 7 19 11 E - 0,0
22.05.2019 05:00:00 11,7 9,4 15 8 24 13 E 20 0,0
22.05.2019 04:00:00 12,1 9,5 16 9 24 13 E - 0,0
22.05.2019 03:00:00 12,8 9,8 16 8 23 13 E - 0,0
22.05.2019 02:00:00 13,3 9,4 15 8 22 12 ENE 20 0,0
22.05.2019 01:00:00 13,6 8,2 17 9 28 15 NE - 0,0
22.05.2019 00:00:00 14,6 10,0 22 12 32 17 N - 0,0
21.05.2019 23:00:00 14,0 11,0 19 11 25 13 WNW 25 0,0
21.05.2019 22:00:00 14,2 11,4 19 10 27 15 WNW - 0,0
21.05.2019 21:00:00 15,2 11,4 23 12 27 15 WNW - 0,0
21.05.2019 20:00:00 15,8 11,2 21 12 29 16 W 25 0,0
21.05.2019 19:00:00 16,4 12,4 18 10 32 17 W - 0,0
21.05.2019 18:00:00 16,5 11,4 16 8 28 15 W - 0,0
21.05.2019 17:00:00 16,2 10,9 16 9 30 16 WSW 25 0,0
21.05.2019 16:00:00 16,5 9,9 16 8 28 15 W - 0,0
21.05.2019 15:00:00 15,7 11,5 14 8 26 14 W - 0,0
21.05.2019 14:00:00 15,9 11,7 12 7 27 15 W 15 0,0
21.05.2019 13:00:00 15,3 10,7 10 6 24 13 W - 0,0
21.05.2019 12:00:00 16,0 11,4 11 6 16 9 W - 0,0
21.05.2019 11:00:00 14,7 10,5 4 2 8 4 N 25 0,0
21.05.2019 10:00:00 13,2 9,3 0 0 13 7 N - 0,0
21.05.2019 09:00:00 12,8 9,1 6 3 13 7 ENE - 0,0
21.05.2019 08:00:00 10,6 9,0 8 5 13 7 NNE 25 0,0
21.05.2019 07:00:00 10,5 9,3 7 4 16 8 N - 0,0
21.05.2019 06:00:00 10,1 8,9 10 6 16 9 N - 0,0
21.05.2019 05:00:00 10,3 8,9 12 7 18 10 N 25 0,0

tt = Température de l'air
td = dewpoint
ff = Vitesse du vent
fx = gusts
dd = Direction du vent
vv = visibility
rr = Quantités de précipitations

stations d'obs. à proximité